sensor_id;sensor_type;location;lat;lon;timestamp;P1;durP1;ratioP1;P2;durP2;ratioP2
47021;SDS011;32779;52.264;6.154;2024-03-17T00:02:19;15.20;;;6.78;;
47021;SDS011;32779;52.264;6.154;2024-03-17T00:04:45;12.75;;;7.50;;
47021;SDS011;32779;52.264;6.154;2024-03-17T00:07:11;13.80;;;7.45;;
47021;SDS011;32779;52.264;6.154;2024-03-17T00:09:37;13.65;;;7.78;;
47021;SDS011;32779;52.264;6.154;2024-03-17T00:12:03;14.88;;;7.53;;
47021;SDS011;32779;52.264;6.154;2024-03-17T00:14:29;14.38;;;8.50;;
47021;SDS011;32779;52.264;6.154;2024-03-17T00:16:55;15.77;;;8.32;;
47021;SDS011;32779;52.264;6.154;2024-03-17T00:19:20;14.85;;;8.52;;
47021;SDS011;32779;52.264;6.154;2024-03-17T00:21:48;14.27;;;7.95;;
47021;SDS011;32779;52.264;6.154;2024-03-17T00:24:15;14.73;;;8.50;;
47021;SDS011;32779;52.264;6.154;2024-03-17T00:26:42;13.45;;;8.18;;
47021;SDS011;32779;52.264;6.154;2024-03-17T00:29:07;19.38;;;8.77;;
47021;SDS011;32779;52.264;6.154;2024-03-17T00:31:33;12.88;;;8.02;;
47021;SDS011;32779;52.264;6.154;2024-03-17T00:33:59;15.20;;;8.95;;
47021;SDS011;32779;52.264;6.154;2024-03-17T00:36:24;21.17;;;9.20;;
47021;SDS011;32779;52.264;6.154;2024-03-17T00:38:50;12.20;;;8.32;;
47021;SDS011;32779;52.264;6.154;2024-03-17T00:41:17;19.63;;;9.35;;
47021;SDS011;32779;52.264;6.154;2024-03-17T00:43:44;20.13;;;8.95;;
47021;SDS011;32779;52.264;6.154;2024-03-17T00:46:09;19.60;;;8.70;;
47021;SDS011;32779;52.264;6.154;2024-03-17T00:48:35;15.75;;;7.93;;
47021;SDS011;32779;52.264;6.154;2024-03-17T00:51:01;17.88;;;9.80;;
47021;SDS011;32779;52.264;6.154;2024-03-17T00:53:28;18.80;;;8.20;;
47021;SDS011;32779;52.264;6.154;2024-03-17T00:55:57;15.57;;;8.40;;
47021;SDS011;32779;52.264;6.154;2024-03-17T00:58:26;17.17;;;8.90;;
47021;SDS011;32779;52.264;6.154;2024-03-17T01:00:52;16.85;;;7.68;;
47021;SDS011;32779;52.264;6.154;2024-03-17T01:03:17;17.55;;;7.85;;
47021;SDS011;32779;52.264;6.154;2024-03-17T01:05:43;15.88;;;8.45;;
47021;SDS011;32779;52.264;6.154;2024-03-17T01:08:11;17.83;;;8.38;;
47021;SDS011;32779;52.264;6.154;2024-03-17T01:10:37;15.85;;;8.85;;
47021;SDS011;32779;52.264;6.154;2024-03-17T01:13:05;16.73;;;9.15;;
47021;SDS011;32779;52.264;6.154;2024-03-17T01:15:32;16.58;;;8.20;;
47021;SDS011;32779;52.264;6.154;2024-03-17T01:17:58;17.35;;;8.15;;
47021;SDS011;32779;52.264;6.154;2024-03-17T01:20:24;12.07;;;7.32;;
47021;SDS011;32779;52.264;6.154;2024-03-17T01:22:50;17.85;;;7.70;;
47021;SDS011;32779;52.264;6.154;2024-03-17T01:25:16;13.80;;;7.35;;
47021;SDS011;32779;52.264;6.154;2024-03-17T01:27:41;18.95;;;7.88;;
47021;SDS011;32779;52.264;6.154;2024-03-17T01:30:09;16.33;;;6.70;;
47021;SDS011;32779;52.264;6.154;2024-03-17T01:32:36;15.23;;;6.88;;
47021;SDS011;32779;52.264;6.154;2024-03-17T01:35:02;12.18;;;6.25;;
47021;SDS011;32779;52.264;6.154;2024-03-17T01:37:28;10.88;;;5.82;;
47021;SDS011;32779;52.264;6.154;2024-03-17T01:39:57;13.10;;;5.80;;
47021;SDS011;32779;52.264;6.154;2024-03-17T01:42:23;18.05;;;6.63;;
47021;SDS011;32779;52.264;6.154;2024-03-17T01:44:49;12.35;;;6.43;;
47021;SDS011;32779;52.264;6.154;2024-03-17T01:47:15;16.35;;;6.63;;
47021;SDS011;32779;52.264;6.154;2024-03-17T01:49:45;16.90;;;6.50;;
47021;SDS011;32779;52.264;6.154;2024-03-17T01:52:12;13.85;;;7.20;;
47021;SDS011;32779;52.264;6.154;2024-03-17T01:54:39;13.95;;;6.13;;
47021;SDS011;32779;52.264;6.154;2024-03-17T01:57:06;11.48;;;6.25;;
47021;SDS011;32779;52.264;6.154;2024-03-17T01:59:31;14.63;;;6.47;;
47021;SDS011;32779;52.264;6.154;2024-03-17T02:01:57;13.20;;;6.43;;
47021;SDS011;32779;52.264;6.154;2024-03-17T02:04:23;16.08;;;7.45;;
47021;SDS011;32779;52.264;6.154;2024-03-17T02:06:48;14.38;;;7.15;;
47021;SDS011;32779;52.264;6.154;2024-03-17T02:09:14;13.20;;;7.05;;
47021;SDS011;32779;52.264;6.154;2024-03-17T02:11:39;18.23;;;7.22;;
47021;SDS011;32779;52.264;6.154;2024-03-17T02:14:05;11.77;;;6.38;;
47021;SDS011;32779;52.264;6.154;2024-03-17T02:16:32;11.85;;;6.70;;
47021;SDS011;32779;52.264;6.154;2024-03-17T02:18:58;15.43;;;7.03;;
47021;SDS011;32779;52.264;6.154;2024-03-17T02:21:24;16.88;;;7.40;;
47021;SDS011;32779;52.264;6.154;2024-03-17T02:23:54;13.10;;;6.72;;
47021;SDS011;32779;52.264;6.154;2024-03-17T02:26:19;18.00;;;7.03;;
47021;SDS011;32779;52.264;6.154;2024-03-17T02:28:46;14.40;;;6.72;;
47021;SDS011;32779;52.264;6.154;2024-03-17T02:31:13;19.02;;;6.97;;
47021;SDS011;32779;52.264;6.154;2024-03-17T02:33:40;17.15;;;6.47;;
47021;SDS011;32779;52.264;6.154;2024-03-17T02:36:07;13.02;;;6.68;;
47021;SDS011;32779;52.264;6.154;2024-03-17T02:38:33;16.48;;;6.80;;
47021;SDS011;32779;52.264;6.154;2024-03-17T02:41:18;14.95;;;6.53;;
47021;SDS011;32779;52.264;6.154;2024-03-17T02:43:44;10.88;;;5.82;;
47021;SDS011;32779;52.264;6.154;2024-03-17T02:48:42;12.18;;;5.22;;
47021;SDS011;32779;52.264;6.154;2024-03-17T02:51:14;13.38;;;5.75;;
47021;SDS011;32779;52.264;6.154;2024-03-17T02:53:41;10.75;;;5.55;;
47021;SDS011;32779;52.264;6.154;2024-03-17T02:58:37;13.27;;;5.00;;
47021;SDS011;32779;52.264;6.154;2024-03-17T03:01:04;11.85;;;5.97;;
47021;SDS011;32779;52.264;6.154;2024-03-17T03:03:33;19.17;;;5.80;;
47021;SDS011;32779;52.264;6.154;2024-03-17T03:05:59;11.68;;;5.38;;
47021;SDS011;32779;52.264;6.154;2024-03-17T03:08:40;7.80;;;5.55;;
47021;SDS011;32779;52.264;6.154;2024-03-17T03:11:08;18.10;;;5.97;;
47021;SDS011;32779;52.264;6.154;2024-03-17T03:13:38;10.93;;;5.80;;
47021;SDS011;32779;52.264;6.154;2024-03-17T03:16:05;19.08;;;6.35;;
47021;SDS011;32779;52.264;6.154;2024-03-17T03:18:33;11.77;;;5.93;;
47021;SDS011;32779;52.264;6.154;2024-03-17T03:20:59;14.27;;;5.88;;
47021;SDS011;32779;52.264;6.154;2024-03-17T03:23:25;14.43;;;7.15;;
47021;SDS011;32779;52.264;6.154;2024-03-17T03:25:55;15.63;;;6.90;;
47021;SDS011;32779;52.264;6.154;2024-03-17T03:28:24;14.95;;;5.72;;
47021;SDS011;32779;52.264;6.154;2024-03-17T03:30:50;14.35;;;5.82;;
47021;SDS011;32779;52.264;6.154;2024-03-17T03:33:17;14.93;;;5.50;;
47021;SDS011;32779;52.264;6.154;2024-03-17T03:35:46;14.77;;;6.32;;
47021;SDS011;32779;52.264;6.154;2024-03-17T03:38:14;15.40;;;6.10;;
47021;SDS011;32779;52.264;6.154;2024-03-17T03:40:41;9.82;;;5.82;;
47021;SDS011;32779;52.264;6.154;2024-03-17T03:45:33;23.48;;;6.38;;
47021;SDS011;32779;52.264;6.154;2024-03-17T03:48:00;17.58;;;7.07;;
47021;SDS011;32779;52.264;6.154;2024-03-17T03:50:26;15.55;;;7.07;;
47021;SDS011;32779;52.264;6.154;2024-03-17T03:52:51;22.40;;;7.25;;
47021;SDS011;32779;52.264;6.154;2024-03-17T03:55:18;15.00;;;6.80;;
47021;SDS011;32779;52.264;6.154;2024-03-17T03:57:44;14.23;;;6.78;;
47021;SDS011;32779;52.264;6.154;2024-03-17T04:00:16;15.02;;;7.80;;
47021;SDS011;32779;52.264;6.154;2024-03-17T04:02:46;11.45;;;6.55;;
47021;SDS011;32779;52.264;6.154;2024-03-17T04:05:16;13.32;;;6.90;;
47021;SDS011;32779;52.264;6.154;2024-03-17T04:07:43;12.90;;;6.82;;
47021;SDS011;32779;52.264;6.154;2024-03-17T04:10:11;15.98;;;7.78;;
47021;SDS011;32779;52.264;6.154;2024-03-17T04:12:37;11.73;;;6.63;;
47021;SDS011;32779;52.264;6.154;2024-03-17T04:15:03;14.73;;;7.72;;
47021;SDS011;32779;52.264;6.154;2024-03-17T04:17:31;13.82;;;7.35;;
47021;SDS011;32779;52.264;6.154;2024-03-17T04:22:23;18.65;;;8.68;;
47021;SDS011;32779;52.264;6.154;2024-03-17T04:24:49;20.13;;;7.78;;
47021;SDS011;32779;52.264;6.154;2024-03-17T04:27:22;14.73;;;7.28;;
47021;SDS011;32779;52.264;6.154;2024-03-17T04:29:49;17.13;;;7.80;;
47021;SDS011;32779;52.264;6.154;2024-03-17T04:32:15;22.58;;;7.68;;
47021;SDS011;32779;52.264;6.154;2024-03-17T04:34:40;16.02;;;7.78;;
47021;SDS011;32779;52.264;6.154;2024-03-17T04:37:08;17.67;;;7.88;;
47021;SDS011;32779;52.264;6.154;2024-03-17T04:39:36;11.38;;;7.28;;
47021;SDS011;32779;52.264;6.154;2024-03-17T04:42:03;17.08;;;7.60;;
47021;SDS011;32779;52.264;6.154;2024-03-17T04:44:29;14.63;;;7.07;;
47021;SDS011;32779;52.264;6.154;2024-03-17T04:46:54;14.98;;;7.40;;
47021;SDS011;32779;52.264;6.154;2024-03-17T04:49:20;15.10;;;7.65;;
47021;SDS011;32779;52.264;6.154;2024-03-17T04:51:46;18.17;;;6.85;;
47021;SDS011;32779;52.264;6.154;2024-03-17T04:54:11;12.15;;;7.43;;
47021;SDS011;32779;52.264;6.154;2024-03-17T04:56:37;12.50;;;7.35;;
47021;SDS011;32779;52.264;6.154;2024-03-17T04:59:03;13.52;;;7.95;;
47021;SDS011;32779;52.264;6.154;2024-03-17T05:01:30;13.05;;;7.63;;
47021;SDS011;32779;52.264;6.154;2024-03-17T05:04:00;13.07;;;8.18;;
47021;SDS011;32779;52.264;6.154;2024-03-17T05:06:29;17.15;;;7.38;;
47021;SDS011;32779;52.264;6.154;2024-03-17T05:08:55;13.85;;;7.60;;
47021;SDS011;32779;52.264;6.154;2024-03-17T05:11:20;19.40;;;8.05;;
47021;SDS011;32779;52.264;6.154;2024-03-17T05:13:46;14.20;;;7.50;;
47021;SDS011;32779;52.264;6.154;2024-03-17T05:16:11;12.75;;;7.45;;
47021;SDS011;32779;52.264;6.154;2024-03-17T05:18:37;14.25;;;7.10;;
47021;SDS011;32779;52.264;6.154;2024-03-17T05:21:05;15.55;;;7.22;;
47021;SDS011;32779;52.264;6.154;2024-03-17T05:23:32;13.73;;;7.63;;
47021;SDS011;32779;52.264;6.154;2024-03-17T05:25:59;13.65;;;7.40;;
47021;SDS011;32779;52.264;6.154;2024-03-17T05:28:26;19.63;;;7.63;;
47021;SDS011;32779;52.264;6.154;2024-03-17T05:30:53;16.35;;;7.65;;
47021;SDS011;32779;52.264;6.154;2024-03-17T05:33:19;16.20;;;7.82;;
47021;SDS011;32779;52.264;6.154;2024-03-17T05:35:49;15.00;;;7.55;;
47021;SDS011;32779;52.264;6.154;2024-03-17T05:38:25;15.60;;;7.90;;
47021;SDS011;32779;52.264;6.154;2024-03-17T05:41:02;12.85;;;8.63;;
47021;SDS011;32779;52.264;6.154;2024-03-17T05:43:33;14.65;;;8.57;;
47021;SDS011;32779;52.264;6.154;2024-03-17T05:46:08;15.98;;;8.55;;
47021;SDS011;32779;52.264;6.154;2024-03-17T05:48:35;14.68;;;8.85;;
47021;SDS011;32779;52.264;6.154;2024-03-17T05:51:03;18.00;;;9.80;;
47021;SDS011;32779;52.264;6.154;2024-03-17T05:53:32;13.55;;;9.00;;
47021;SDS011;32779;52.264;6.154;2024-03-17T05:55:58;17.17;;;9.85;;
47021;SDS011;32779;52.264;6.154;2024-03-17T05:58:24;20.60;;;9.32;;
47021;SDS011;32779;52.264;6.154;2024-03-17T06:00:50;18.20;;;8.85;;
47021;SDS011;32779;52.264;6.154;2024-03-17T06:03:15;17.70;;;9.00;;
47021;SDS011;32779;52.264;6.154;2024-03-17T06:05:42;13.25;;;9.40;;
47021;SDS011;32779;52.264;6.154;2024-03-17T06:08:09;15.98;;;9.70;;
47021;SDS011;32779;52.264;6.154;2024-03-17T06:10:36;20.77;;;11.23;;
47021;SDS011;32779;52.264;6.154;2024-03-17T06:13:03;15.35;;;9.63;;
47021;SDS011;32779;52.264;6.154;2024-03-17T06:15:28;18.83;;;10.25;;
47021;SDS011;32779;52.264;6.154;2024-03-17T06:17:55;19.80;;;10.32;;
47021;SDS011;32779;52.264;6.154;2024-03-17T06:20:21;22.05;;;11.25;;
47021;SDS011;32779;52.264;6.154;2024-03-17T06:22:54;21.83;;;10.52;;
47021;SDS011;32779;52.264;6.154;2024-03-17T06:25:20;19.08;;;11.05;;
47021;SDS011;32779;52.264;6.154;2024-03-17T06:27:49;20.05;;;11.05;;
47021;SDS011;32779;52.264;6.154;2024-03-17T06:30:17;19.90;;;10.82;;
47021;SDS011;32779;52.264;6.154;2024-03-17T06:32:43;18.20;;;11.05;;
47021;SDS011;32779;52.264;6.154;2024-03-17T06:35:10;16.67;;;10.32;;
47021;SDS011;32779;52.264;6.154;2024-03-17T06:37:36;20.30;;;10.75;;
47021;SDS011;32779;52.264;6.154;2024-03-17T06:40:02;24.98;;;9.80;;
47021;SDS011;32779;52.264;6.154;2024-03-17T06:42:30;20.92;;;10.93;;
47021;SDS011;32779;52.264;6.154;2024-03-17T06:44:56;20.52;;;11.00;;
47021;SDS011;32779;52.264;6.154;2024-03-17T06:47:23;16.40;;;10.73;;
47021;SDS011;32779;52.264;6.154;2024-03-17T06:49:48;19.13;;;11.13;;
47021;SDS011;32779;52.264;6.154;2024-03-17T06:52:14;27.98;;;11.80;;
47021;SDS011;32779;52.264;6.154;2024-03-17T06:54:39;24.50;;;11.77;;
47021;SDS011;32779;52.264;6.154;2024-03-17T06:57:05;23.17;;;11.30;;
47021;SDS011;32779;52.264;6.154;2024-03-17T06:59:34;22.17;;;10.48;;
47021;SDS011;32779;52.264;6.154;2024-03-17T07:01:59;18.08;;;11.38;;
47021;SDS011;32779;52.264;6.154;2024-03-17T07:06:51;18.88;;;11.20;;
47021;SDS011;32779;52.264;6.154;2024-03-17T07:09:17;20.08;;;11.35;;
47021;SDS011;32779;52.264;6.154;2024-03-17T07:11:42;21.08;;;11.02;;
47021;SDS011;32779;52.264;6.154;2024-03-17T07:14:10;23.25;;;11.73;;
47021;SDS011;32779;52.264;6.154;2024-03-17T07:16:35;23.27;;;11.38;;
47021;SDS011;32779;52.264;6.154;2024-03-17T07:19:01;23.23;;;12.05;;
47021;SDS011;32779;52.264;6.154;2024-03-17T07:21:27;21.50;;;11.85;;
47021;SDS011;32779;52.264;6.154;2024-03-17T07:23:53;20.63;;;12.00;;
47021;SDS011;32779;52.264;6.154;2024-03-17T07:26:19;18.88;;;11.75;;
47021;SDS011;32779;52.264;6.154;2024-03-17T07:28:44;19.42;;;11.00;;
47021;SDS011;32779;52.264;6.154;2024-03-17T07:31:10;20.70;;;10.20;;
47021;SDS011;32779;52.264;6.154;2024-03-17T07:33:36;18.00;;;10.90;;
47021;SDS011;32779;52.264;6.154;2024-03-17T07:36:02;21.52;;;10.50;;
47021;SDS011;32779;52.264;6.154;2024-03-17T07:38:30;17.65;;;10.00;;
47021;SDS011;32779;52.264;6.154;2024-03-17T07:41:02;18.85;;;10.10;;
47021;SDS011;32779;52.264;6.154;2024-03-17T07:43:33;19.08;;;10.10;;
47021;SDS011;32779;52.264;6.154;2024-03-17T07:46:08;18.35;;;10.57;;
47021;SDS011;32779;52.264;6.154;2024-03-17T07:48:37;15.82;;;10.52;;
47021;SDS011;32779;52.264;6.154;2024-03-17T07:51:05;16.80;;;10.70;;
47021;SDS011;32779;52.264;6.154;2024-03-17T07:53:32;14.65;;;9.25;;
47021;SDS011;32779;52.264;6.154;2024-03-17T07:55:59;14.43;;;9.35;;
47021;SDS011;32779;52.264;6.154;2024-03-17T07:58:29;14.90;;;9.57;;
47021;SDS011;32779;52.264;6.154;2024-03-17T08:00:58;15.70;;;9.10;;
47021;SDS011;32779;52.264;6.154;2024-03-17T08:03:28;16.38;;;8.57;;
47021;SDS011;32779;52.264;6.154;2024-03-17T08:05:54;14.50;;;8.40;;
47021;SDS011;32779;52.264;6.154;2024-03-17T08:08:20;13.60;;;8.00;;
47021;SDS011;32779;52.264;6.154;2024-03-17T08:10:46;14.23;;;8.40;;
47021;SDS011;32779;52.264;6.154;2024-03-17T08:13:13;13.55;;;8.07;;
47021;SDS011;32779;52.264;6.154;2024-03-17T08:15:41;13.80;;;7.75;;
47021;SDS011;32779;52.264;6.154;2024-03-17T08:18:08;11.55;;;7.50;;
47021;SDS011;32779;52.264;6.154;2024-03-17T08:20:40;10.77;;;7.20;;
47021;SDS011;32779;52.264;6.154;2024-03-17T08:23:11;14.02;;;7.57;;
47021;SDS011;32779;52.264;6.154;2024-03-17T08:25:37;12.50;;;7.38;;
47021;SDS011;32779;52.264;6.154;2024-03-17T08:28:03;16.15;;;7.85;;
47021;SDS011;32779;52.264;6.154;2024-03-17T08:30:29;10.90;;;7.45;;
47021;SDS011;32779;52.264;6.154;2024-03-17T08:32:55;12.30;;;7.13;;
47021;SDS011;32779;52.264;6.154;2024-03-17T08:35:21;8.85;;;6.70;;
47021;SDS011;32779;52.264;6.154;2024-03-17T08:37:47;15.68;;;7.80;;
47021;SDS011;32779;52.264;6.154;2024-03-17T08:40:13;12.38;;;7.07;;
47021;SDS011;32779;52.264;6.154;2024-03-17T08:42:39;11.77;;;6.70;;
47021;SDS011;32779;52.264;6.154;2024-03-17T08:45:05;14.15;;;7.47;;
47021;SDS011;32779;52.264;6.154;2024-03-17T08:47:31;13.00;;;6.93;;
47021;SDS011;32779;52.264;6.154;2024-03-17T08:49:57;9.90;;;6.45;;
47021;SDS011;32779;52.264;6.154;2024-03-17T08:52:23;7.95;;;6.47;;
47021;SDS011;32779;52.264;6.154;2024-03-17T08:54:49;11.48;;;6.30;;
47021;SDS011;32779;52.264;6.154;2024-03-17T08:57:16;11.15;;;6.25;;
47021;SDS011;32779;52.264;6.154;2024-03-17T08:59:42;10.90;;;6.05;;
47021;SDS011;32779;52.264;6.154;2024-03-17T09:02:11;12.18;;;6.10;;
47021;SDS011;32779;52.264;6.154;2024-03-17T09:04:39;9.50;;;5.97;;
47021;SDS011;32779;52.264;6.154;2024-03-17T09:07:08;10.55;;;5.55;;
47021;SDS011;32779;52.264;6.154;2024-03-17T09:09:34;12.10;;;6.50;;
47021;SDS011;32779;52.264;6.154;2024-03-17T09:11:59;9.88;;;5.70;;
47021;SDS011;32779;52.264;6.154;2024-03-17T09:14:25;11.15;;;6.30;;
47021;SDS011;32779;52.264;6.154;2024-03-17T09:16:50;10.85;;;5.85;;
47021;SDS011;32779;52.264;6.154;2024-03-17T09:19:16;11.63;;;5.68;;
47021;SDS011;32779;52.264;6.154;2024-03-17T09:21:42;11.50;;;6.15;;
47021;SDS011;32779;52.264;6.154;2024-03-17T09:24:07;8.60;;;5.43;;
47021;SDS011;32779;52.264;6.154;2024-03-17T09:26:33;13.95;;;5.35;;
47021;SDS011;32779;52.264;6.154;2024-03-17T09:28:59;12.23;;;5.22;;
47021;SDS011;32779;52.264;6.154;2024-03-17T09:33:51;9.38;;;5.15;;
47021;SDS011;32779;52.264;6.154;2024-03-17T09:36:17;6.70;;;4.88;;
47021;SDS011;32779;52.264;6.154;2024-03-17T09:38:43;8.65;;;5.22;;
47021;SDS011;32779;52.264;6.154;2024-03-17T09:41:19;11.32;;;5.13;;
47021;SDS011;32779;52.264;6.154;2024-03-17T09:43:47;10.93;;;5.07;;
47021;SDS011;32779;52.264;6.154;2024-03-17T09:46:13;7.30;;;4.80;;
47021;SDS011;32779;52.264;6.154;2024-03-17T09:48:40;8.23;;;4.75;;
47021;SDS011;32779;52.264;6.154;2024-03-17T09:51:05;9.88;;;5.82;;
47021;SDS011;32779;52.264;6.154;2024-03-17T09:53:31;9.55;;;5.10;;
47021;SDS011;32779;52.264;6.154;2024-03-17T09:56:03;8.20;;;4.68;;
47021;SDS011;32779;52.264;6.154;2024-03-17T09:58:34;9.85;;;4.93;;
47021;SDS011;32779;52.264;6.154;2024-03-17T10:00:59;9.38;;;5.07;;
47021;SDS011;32779;52.264;6.154;2024-03-17T10:06:14;8.65;;;4.88;;
47021;SDS011;32779;52.264;6.154;2024-03-17T10:08:44;7.03;;;4.53;;
47021;SDS011;32779;52.264;6.154;2024-03-17T10:11:11;9.50;;;4.53;;
47021;SDS011;32779;52.264;6.154;2024-03-17T10:13:38;7.50;;;3.97;;
47021;SDS011;32779;52.264;6.154;2024-03-17T10:16:04;7.07;;;4.10;;
47021;SDS011;32779;52.264;6.154;2024-03-17T10:18:30;7.20;;;3.72;;
47021;SDS011;32779;52.264;6.154;2024-03-17T10:20:56;5.63;;;3.33;;
47021;SDS011;32779;52.264;6.154;2024-03-17T10:23:23;9.30;;;4.00;;
47021;SDS011;32779;52.264;6.154;2024-03-17T10:25:49;8.98;;;4.50;;
47021;SDS011;32779;52.264;6.154;2024-03-17T10:28:16;8.95;;;4.95;;
47021;SDS011;32779;52.264;6.154;2024-03-17T10:30:42;7.45;;;5.20;;
47021;SDS011;32779;52.264;6.154;2024-03-17T10:33:23;11.30;;;4.43;;
47021;SDS011;32779;52.264;6.154;2024-03-17T10:35:58;13.63;;;4.68;;
47021;SDS011;32779;52.264;6.154;2024-03-17T10:38:30;14.35;;;5.00;;
47021;SDS011;32779;52.264;6.154;2024-03-17T10:40:56;9.98;;;5.20;;
47021;SDS011;32779;52.264;6.154;2024-03-17T10:43:22;8.15;;;5.53;;
47021;SDS011;32779;52.264;6.154;2024-03-17T10:45:53;8.25;;;4.57;;
47021;SDS011;32779;52.264;6.154;2024-03-17T10:48:20;7.47;;;5.10;;
47021;SDS011;32779;52.264;6.154;2024-03-17T10:50:47;7.47;;;4.97;;
47021;SDS011;32779;52.264;6.154;2024-03-17T10:53:15;7.57;;;4.63;;
47021;SDS011;32779;52.264;6.154;2024-03-17T10:55:51;11.02;;;5.20;;
47021;SDS011;32779;52.264;6.154;2024-03-17T10:58:28;7.95;;;4.60;;
47021;SDS011;32779;52.264;6.154;2024-03-17T11:01:05;8.75;;;4.90;;
47021;SDS011;32779;52.264;6.154;2024-03-17T11:03:32;10.63;;;5.22;;
47021;SDS011;32779;52.264;6.154;2024-03-17T11:05:59;8.50;;;6.20;;
47021;SDS011;32779;52.264;6.154;2024-03-17T11:08:28;8.80;;;6.72;;
47021;SDS011;32779;52.264;6.154;2024-03-17T11:10:56;15.25;;;9.23;;
47021;SDS011;32779;52.264;6.154;2024-03-17T11:13:23;21.00;;;12.02;;
47021;SDS011;32779;52.264;6.154;2024-03-17T11:15:52;12.25;;;7.63;;
47021;SDS011;32779;52.264;6.154;2024-03-17T11:20:59;14.60;;;6.80;;
47021;SDS011;32779;52.264;6.154;2024-03-17T11:23:29;9.85;;;6.20;;
47021;SDS011;32779;52.264;6.154;2024-03-17T11:25:56;13.35;;;6.97;;
47021;SDS011;32779;52.264;6.154;2024-03-17T11:33:57;12.93;;;6.68;;
47021;SDS011;32779;52.264;6.154;2024-03-17T11:38:57;29.50;;;12.73;;
47021;SDS011;32779;52.264;6.154;2024-03-17T11:41:38;11.48;;;6.40;;
47021;SDS011;32779;52.264;6.154;2024-03-17T11:46:52;11.02;;;7.95;;
47021;SDS011;32779;52.264;6.154;2024-03-17T11:49:31;10.88;;;6.85;;
47021;SDS011;32779;52.264;6.154;2024-03-17T11:51:58;9.77;;;5.75;;
47021;SDS011;32779;52.264;6.154;2024-03-17T11:54:29;9.63;;;5.35;;
47021;SDS011;32779;52.264;6.154;2024-03-17T11:57:00;11.50;;;7.68;;
47021;SDS011;32779;52.264;6.154;2024-03-17T11:59:27;10.55;;;7.13;;
47021;SDS011;32779;52.264;6.154;2024-03-17T12:01:54;10.45;;;6.65;;
47021;SDS011;32779;52.264;6.154;2024-03-17T12:04:20;11.57;;;7.40;;
47021;SDS011;32779;52.264;6.154;2024-03-17T12:06:47;12.32;;;7.35;;
47021;SDS011;32779;52.264;6.154;2024-03-17T12:09:28;8.57;;;5.82;;
47021;SDS011;32779;52.264;6.154;2024-03-17T12:14:31;11.88;;;6.40;;
47021;SDS011;32779;52.264;6.154;2024-03-17T12:16:59;15.98;;;6.88;;
47021;SDS011;32779;52.264;6.154;2024-03-17T12:19:26;12.30;;;6.38;;
47021;SDS011;32779;52.264;6.154;2024-03-17T12:21:53;9.25;;;7.07;;
47021;SDS011;32779;52.264;6.154;2024-03-17T12:24:34;10.07;;;7.40;;
47021;SDS011;32779;52.264;6.154;2024-03-17T12:27:04;13.77;;;7.22;;
47021;SDS011;32779;52.264;6.154;2024-03-17T12:29:37;9.30;;;5.93;;
47021;SDS011;32779;52.264;6.154;2024-03-17T12:34:35;11.05;;;6.07;;
47021;SDS011;32779;52.264;6.154;2024-03-17T12:37:01;12.23;;;5.93;;
47021;SDS011;32779;52.264;6.154;2024-03-17T12:39:34;13.55;;;6.35;;
47021;SDS011;32779;52.264;6.154;2024-03-17T12:44:38;10.75;;;5.80;;
47021;SDS011;32779;52.264;6.154;2024-03-17T12:47:07;14.18;;;5.88;;
47021;SDS011;32779;52.264;6.154;2024-03-17T12:49:34;8.85;;;5.63;;
47021;SDS011;32779;52.264;6.154;2024-03-17T12:52:03;10.77;;;6.25;;
47021;SDS011;32779;52.264;6.154;2024-03-17T12:54:28;10.10;;;5.38;;
47021;SDS011;32779;52.264;6.154;2024-03-17T12:57:04;11.05;;;5.45;;
47021;SDS011;32779;52.264;6.154;2024-03-17T12:59:49;9.45;;;5.57;;
47021;SDS011;32779;52.264;6.154;2024-03-17T13:02:20;13.30;;;5.45;;
47021;SDS011;32779;52.264;6.154;2024-03-17T13:04:48;9.45;;;5.43;;
47021;SDS011;32779;52.264;6.154;2024-03-17T13:07:30;8.18;;;5.68;;
47021;SDS011;32779;52.264;6.154;2024-03-17T13:09:56;10.77;;;6.00;;
47021;SDS011;32779;52.264;6.154;2024-03-17T13:12:21;9.57;;;6.30;;
47021;SDS011;32779;52.264;6.154;2024-03-17T13:14:47;11.63;;;6.00;;
47021;SDS011;32779;52.264;6.154;2024-03-17T13:17:14;15.02;;;6.65;;
47021;SDS011;32779;52.264;6.154;2024-03-17T13:19:46;10.73;;;6.10;;
47021;SDS011;32779;52.264;6.154;2024-03-17T13:22:12;11.60;;;6.20;;
47021;SDS011;32779;52.264;6.154;2024-03-17T13:27:04;8.75;;;6.00;;
47021;SDS011;32779;52.264;6.154;2024-03-17T13:29:31;12.57;;;6.55;;
47021;SDS011;32779;52.264;6.154;2024-03-17T13:32:03;11.82;;;6.22;;
47021;SDS011;32779;52.264;6.154;2024-03-17T13:36:55;11.57;;;6.05;;
47021;SDS011;32779;52.264;6.154;2024-03-17T13:39:21;8.68;;;5.93;;
47021;SDS011;32779;52.264;6.154;2024-03-17T13:41:47;9.13;;;6.03;;
47021;SDS011;32779;52.264;6.154;2024-03-17T13:44:14;13.15;;;6.18;;
47021;SDS011;32779;52.264;6.154;2024-03-17T13:49:09;12.05;;;6.00;;
47021;SDS011;32779;52.264;6.154;2024-03-17T13:51:35;7.65;;;5.10;;
47021;SDS011;32779;52.264;6.154;2024-03-17T13:54:00;11.50;;;6.40;;
47021;SDS011;32779;52.264;6.154;2024-03-17T13:56:27;9.55;;;6.20;;
47021;SDS011;32779;52.264;6.154;2024-03-17T13:58:52;8.68;;;6.35;;
47021;SDS011;32779;52.264;6.154;2024-03-17T14:01:18;14.60;;;6.65;;
47021;SDS011;32779;52.264;6.154;2024-03-17T14:03:43;9.90;;;5.60;;
47021;SDS011;32779;52.264;6.154;2024-03-17T14:06:10;9.98;;;5.57;;
47021;SDS011;32779;52.264;6.154;2024-03-17T14:08:36;10.88;;;6.07;;
47021;SDS011;32779;52.264;6.154;2024-03-17T14:11:02;10.68;;;5.60;;
47021;SDS011;32779;52.264;6.154;2024-03-17T14:13:29;8.98;;;6.05;;
47021;SDS011;32779;52.264;6.154;2024-03-17T14:15:55;8.10;;;5.22;;
47021;SDS011;32779;52.264;6.154;2024-03-17T14:18:21;12.07;;;5.20;;
47021;SDS011;32779;52.264;6.154;2024-03-17T14:20:47;9.02;;;5.97;;
47021;SDS011;32779;52.264;6.154;2024-03-17T14:23:12;8.52;;;5.60;;
47021;SDS011;32779;52.264;6.154;2024-03-17T14:25:38;8.88;;;5.90;;
47021;SDS011;32779;52.264;6.154;2024-03-17T14:28:04;8.48;;;6.13;;
47021;SDS011;32779;52.264;6.154;2024-03-17T14:30:30;9.27;;;5.70;;
47021;SDS011;32779;52.264;6.154;2024-03-17T14:32:58;10.13;;;5.80;;
47021;SDS011;32779;52.264;6.154;2024-03-17T14:35:24;12.13;;;6.13;;
47021;SDS011;32779;52.264;6.154;2024-03-17T14:37:51;9.77;;;5.22;;
47021;SDS011;32779;52.264;6.154;2024-03-17T14:40:18;9.93;;;6.03;;
47021;SDS011;32779;52.264;6.154;2024-03-17T14:42:52;9.50;;;5.40;;
47021;SDS011;32779;52.264;6.154;2024-03-17T14:45:18;8.85;;;5.97;;
47021;SDS011;32779;52.264;6.154;2024-03-17T14:50:10;10.80;;;6.10;;
47021;SDS011;32779;52.264;6.154;2024-03-17T14:52:41;8.80;;;6.03;;
47021;SDS011;32779;52.264;6.154;2024-03-17T14:55:08;12.60;;;6.93;;
47021;SDS011;32779;52.264;6.154;2024-03-17T14:57:39;8.68;;;6.07;;
47021;SDS011;32779;52.264;6.154;2024-03-17T15:00:10;9.20;;;6.60;;
47021;SDS011;32779;52.264;6.154;2024-03-17T15:02:43;11.85;;;6.57;;
47021;SDS011;32779;52.264;6.154;2024-03-17T15:05:10;10.43;;;6.35;;
47021;SDS011;32779;52.264;6.154;2024-03-17T15:07:36;12.77;;;6.97;;
47021;SDS011;32779;52.264;6.154;2024-03-17T15:10:03;10.70;;;6.55;;
47021;SDS011;32779;52.264;6.154;2024-03-17T15:12:30;8.80;;;6.18;;
47021;SDS011;32779;52.264;6.154;2024-03-17T15:14:55;10.30;;;6.00;;
47021;SDS011;32779;52.264;6.154;2024-03-17T15:17:21;11.02;;;7.00;;
47021;SDS011;32779;52.264;6.154;2024-03-17T15:19:47;12.05;;;6.68;;
47021;SDS011;32779;52.264;6.154;2024-03-17T15:22:13;9.52;;;6.55;;
47021;SDS011;32779;52.264;6.154;2024-03-17T15:24:38;12.05;;;6.57;;
47021;SDS011;32779;52.264;6.154;2024-03-17T15:27:04;9.25;;;6.88;;